Du har inga inställningar för hoppväder.nu

Hoppväder.nu

Senast uppdaterat 02:33

UTC-tid

2019-12-06 kl. 01:33


Sol och måne

Solen går upp 8:42 och går ner 15:01 (beräknade cirkatider)
Nästa fullmåne blir om 6 dagar (2019-12-12)

METAR

ESOE (Örebro)
(13 minuter sedan)
ESOE 060120Z 20015KT 9999 DZ SCT012 BKN019 06/04 Q0989=



ESOK (Karlstad)
(13 minuter sedan)
ESOK 060120Z AUTO 19011KT 6000 -RA FEW006/// SCT008/// BKN010/// 05/05 Q0987=



ESGR (Skövde)
(13 minuter sedan)
ESGR 060120Z AUTO 19011KT 9999 -RA BKN014/// OVC023/// 05/05 Q0990=



ESSD (Borlänge)
(13 minuter sedan)
ESSD 060120Z AUTO 22014KT 9999 FEW018/// OVC074/// 05/02 Q0985=



ESOW (Västerås)
(13 minuter sedan)
ESOW 060120Z AUTO 21013KT 7000 DZ SCT011/// BKN015/// BKN020/// 05/04 Q0990=



TAF

ESOE (Örebro)
(123 minuter sedan)
ESOE 052330Z 0600/0609 22015KT 9999 -RA BKN016 TEMPO 0600/0609 2500 RA BKN008=



ESOK (Karlstad)
ESOK



ESGR (Skövde)
ESGR



ESSD (Borlänge)
ESSD



ESOW (Västerås)
(483 minuter sedan)
ESOW 051730Z 0518/0522 22015G25KT 9999 BKN025=





Kodnycklar till TAF och METAR






LHP

(Örebro är område G2a i Södra delen)

Prognos är inte uppdaterad




Spotting

Hur fungerar spotthjälpen och Vindkartan?

Markvind är ca 0 m/s.



Vindkartan

Senast uppdaterad 02:33




All data kommer från LFV.se